Nowlin, South Dakota
Current Conditions -  °F | °C
As of 3:55 AM on Saturday 01 Nov 2014 (Local Time) from KPHP Reporting Station
Clear Clear  
Wind Chill: 30°   Ceiling: Unl
Heat Index: 37°   Visibility: 10mi
Dew Point: 18°   Wind: 10mph
Humidity: 46%   Direction: 150°SSE
Pressure: 29.93"   Gusts: NA
Location:  44.3169°N, 101.368°W
Report Text: KPHP 010955Z AUTO 15009KT 10SM CLR 03/M08 A2993 RMK AO2 SLP143 T00281078
Loading
Personal Weather Stations






























Interactive Weather Map
Tropical Storm Tracking
New forecast layout! Learn more

10-Day Weather Forecast

Advertisements
Track Severe Weather on mobile